Terminal Aerodrome Forecast
Issued by NWS

Home | Current Version | Previous Version | Text Only | Print | Product List | Glossary On
Versions: 1 2 3 4 5 6 7 8 9 10 11 12 13 14 15 16 17 18 19
000
FTUS43 KBIS 271139
TAFJMS
TAF
KJMS 271139Z 2712/2812 15005KT P6SM VCTS SCT035 BKN060CB
      TEMPO 2712/2715 -SHRA SCT025 BKN035 BKN050
     FM271500 20006KT P6SM VCTS SCT040 BKN090CB
     FM271800 19009KT P6SM SCT050
     FM272100 22012KT P6SM SCT090
     FM280300 15005KT P6SM FEW250=

USA.gov is the U.S. government's official web portal to all federal, state and local government web resources and services.